logo
Search for airport 
image banner adimage banner adimage banner ad
image banner ad

ZYTL - Dalian/Zhoushuizi

Located in Dalian, China

ICAO - ZYTL, IATA - DLC

Data provided by Airmate  

General information

Coordinates: N38°58'0" E121°32'24"
Elevation is 108 feet MSL.
 
View others Airports in Liaoning Province

Operational data

Special qualification required
Current time UTC:
Current local time:
Weather
METAR: ZYTL 131930Z 09002MPS 0800 R10/1700D FG BKN002 09/09 Q1016 NOSIG
TAF: TAF ZYTL 131508Z 1318/1418 11004MPS 0800 FG BKN002 BKN010 OVC033 TX16/1406Z TN08/1321Z TEMPO 1318/1324 0300 BKN001 BKN010 OVC033 BECMG 1400/1401 1500 BR BECMG 1401/1402 3000 SCT004 BKN033
View NOTAMs / SUP AIP / TFR affecting this airport [VIEW]
Communications frequencies: [VIEW]

Runways:

RWY identifierQFULength (ft)Width (ft)SurfaceLDA (ft)
1096°10827148CON
28276°10827148CON

Airport contact information

Address: Dalian China

Satellite view of ZYTL